createdAt,value
2019-03-09T00:00:55.831Z,100503.62
2019-03-09T00:03:25.134Z,100501.23
2019-03-09T00:05:54.504Z,100497.03
2019-03-09T00:08:23.818Z,100501.68
2019-03-09T00:10:53.271Z,100498.94
2019-03-09T00:13:22.574Z,100500.76
2019-03-09T00:15:51.870Z,100494.33
2019-03-09T00:18:21.185Z,100484.97
2019-03-09T00:20:50.482Z,100491.93
2019-03-09T00:23:24.460Z,100481.45
2019-03-09T00:26:11.594Z,100472.78
2019-03-09T00:28:58.911Z,100465.65
2019-03-09T00:31:35.697Z,100464.37
2019-03-09T00:34:05.583Z,100448.08
2019-03-09T00:36:35.081Z,100451.06
2019-03-09T00:39:06.492Z,100438.95
2019-03-09T00:41:35.929Z,100431.25
2019-03-09T00:44:05.661Z,100436.53
2019-03-09T00:46:35.175Z,100436.63
2019-03-09T00:49:04.522Z,100439.64
2019-03-09T00:51:33.874Z,100434.17
2019-03-09T00:54:03.196Z,100428.86
2019-03-09T00:56:32.503Z,100429.97
2019-03-09T00:59:01.772Z,100420.61
2019-03-09T01:01:31.471Z,100420.36
2019-03-09T01:04:00.763Z,100411.89
2019-03-09T01:06:32.808Z,100424.30
2019-03-09T01:09:02.225Z,100406.48
2019-03-09T01:11:31.546Z,100405.06
2019-03-09T01:14:00.849Z,100391.23
2019-03-09T01:16:30.231Z,100381.89
2019-03-09T01:18:59.613Z,100376.95
2019-03-09T01:21:29.034Z,100372.13
2019-03-09T01:23:58.324Z,100359.15
2019-03-09T01:26:27.629Z,100354.69
2019-03-09T01:28:56.977Z,100352.95
2019-03-09T01:31:26.464Z,100354.22
2019-03-09T01:33:55.762Z,100349.80
2019-03-09T01:36:25.108Z,100343.31
2019-03-09T01:38:54.577Z,100338.16
2019-03-09T01:41:23.926Z,100342.52
2019-03-09T01:43:53.229Z,100334.20
2019-03-09T01:46:22.508Z,100313.36
2019-03-09T01:48:51.817Z,100330.86
2019-03-09T01:51:21.387Z,100317.84
2019-03-09T01:53:50.662Z,100304.58
2019-03-09T01:56:20.143Z,100313.77
2019-03-09T01:58:49.425Z,100307.11
2019-03-09T02:01:19.184Z,100303.17
2019-03-09T02:03:48.486Z,100299.66
2019-03-09T02:06:17.764Z,100297.14
2019-03-09T02:08:47.104Z,100300.23
2019-03-09T02:11:16.476Z,100297.66
2019-03-09T02:13:45.783Z,100296.45
2019-03-09T02:16:15.104Z,100289.72
2019-03-09T02:18:44.389Z,100300.12
2019-03-09T02:21:13.707Z,100283.54
2019-03-09T02:23:42.979Z,100286.34
2019-03-09T02:26:12.278Z,100263.92
2019-03-09T02:28:41.564Z,100265.34
2019-03-09T02:31:10.879Z,100259.77
2019-03-09T02:33:40.165Z,100280.56
2019-03-09T02:36:09.551Z,100276.72
2019-03-09T02:38:46.124Z,100269.26
2019-03-09T02:41:15.499Z,100275.23
2019-03-09T02:43:44.766Z,100269.36
2019-03-09T02:46:14.127Z,100264.64
2019-03-09T02:48:43.368Z,100269.19
2019-03-09T02:51:12.675Z,100264.99
2019-03-09T02:53:41.960Z,100268.51
2019-03-09T02:56:11.247Z,100261.52
2019-03-09T02:58:40.542Z,100266.34
2019-03-09T03:01:26.596Z,100258.36
2019-03-09T03:03:56.064Z,100253.82
2019-03-09T03:06:26.245Z,100257.84
2019-03-09T03:08:55.522Z,100252.16
2019-03-09T03:11:24.966Z,100255.84
2019-03-09T03:13:54.263Z,100254.74
2019-03-09T03:16:23.543Z,100256.91
2019-03-09T03:18:53.113Z,100256.57
2019-03-09T03:21:22.678Z,100262.36
2019-03-09T03:23:51.950Z,100262.23
2019-03-09T03:26:21.261Z,100265.81
2019-03-09T03:28:50.531Z,100271.53
2019-03-09T03:31:19.852Z,100275.59
2019-03-09T03:33:49.123Z,100267.92
2019-03-09T03:36:18.411Z,100264.06
2019-03-09T03:38:47.692Z,100264.81
2019-03-09T03:41:17.025Z,100258.38
2019-03-09T03:43:46.429Z,100270.88
2019-03-09T03:46:15.705Z,100271.11
2019-03-09T03:48:45.009Z,100274.91
2019-03-09T03:51:14.288Z,100270.01
2019-03-09T03:53:43.860Z,100265.64
2019-03-09T03:56:13.133Z,100276.36
2019-03-09T03:58:42.514Z,100268.22
2019-03-09T04:01:12.111Z,100280.22
2019-03-09T04:03:41.423Z,100276.77
2019-03-09T04:06:10.945Z,100276.08
2019-03-09T04:08:40.594Z,100273.02
2019-03-09T04:11:09.953Z,100275.67
2019-03-09T04:13:39.500Z,100283.24
2019-03-09T04:16:08.815Z,100293.50
2019-03-09T04:18:38.118Z,100288.84
2019-03-09T04:21:07.472Z,100289.88
2019-03-09T04:23:36.776Z,100287.23
2019-03-09T04:26:06.115Z,100285.70
2019-03-09T04:28:35.657Z,100290.57
2019-03-09T04:31:04.940Z,100302.42
2019-03-09T04:33:34.319Z,100302.42
2019-03-09T04:36:03.620Z,100309.97
2019-03-09T04:38:32.923Z,100309.97
2019-03-09T04:41:02.215Z,100304.69
2019-03-09T04:43:31.893Z,100304.78
2019-03-09T04:46:01.171Z,100305.81
2019-03-09T04:48:30.911Z,100306.10
2019-03-09T04:51:00.229Z,100330.04
2019-03-09T04:53:29.536Z,100330.04
2019-03-09T04:55:59.104Z,100330.04
2019-03-09T04:58:28.415Z,100343.38
2019-03-09T05:00:57.695Z,100343.97
2019-03-09T05:03:26.999Z,100343.97
2019-03-09T05:05:56.381Z,100336.45
2019-03-09T05:08:37.419Z,100344.59
2019-03-09T05:11:08.760Z,100344.59
2019-03-09T05:13:40.610Z,100337.30
2019-03-09T05:16:09.881Z,100339.59
2019-03-09T05:18:39.176Z,100353.00
2019-03-09T05:21:08.455Z,100353.84
2019-03-09T05:23:37.773Z,100369.02
2019-03-09T05:26:07.070Z,100373.41
2019-03-09T05:28:36.415Z,100387.91
2019-03-09T05:31:05.714Z,100385.92
2019-03-09T05:33:35.156Z,100383.36
2019-03-09T05:36:04.450Z,100380.09
2019-03-09T05:38:34.539Z,100377.44
2019-03-09T05:41:03.979Z,100376.17
2019-03-09T05:43:33.273Z,100366.53
2019-03-09T05:46:02.898Z,100354.34
2019-03-09T05:48:32.175Z,100372.52
2019-03-09T05:51:01.493Z,100386.08
2019-03-09T05:53:30.781Z,100401.14
2019-03-09T05:56:00.088Z,100405.55
2019-03-09T05:58:29.367Z,100405.84
2019-03-09T06:00:58.890Z,100418.64
2019-03-09T06:03:28.178Z,100421.34
2019-03-09T06:05:58.291Z,100429.63
2019-03-09T06:08:27.962Z,100429.64
2019-03-09T06:10:57.318Z,100430.91
2019-03-09T06:13:26.859Z,100428.88
2019-03-09T06:15:56.313Z,100431.16
2019-03-09T06:18:25.676Z,100423.23
2019-03-09T06:20:55.030Z,100426.44
2019-03-09T06:23:24.321Z,100422.63
2019-03-09T06:25:53.800Z,100410.84
2019-03-09T06:28:23.132Z,100410.16
2019-03-09T06:30:52.498Z,100408.20
2019-03-09T06:33:24.859Z,100411.31
2019-03-09T06:36:06.089Z,100415.16
2019-03-09T06:38:41.456Z,100415.84
2019-03-09T06:41:13.841Z,100413.63
2019-03-09T06:43:43.114Z,100416.95
2019-03-09T06:46:12.735Z,100423.71
2019-03-09T06:48:42.019Z,100428.23
2019-03-09T06:51:11.347Z,100437.28
2019-03-09T06:53:40.647Z,100447.77
2019-03-09T06:56:09.974Z,100454.94
2019-03-09T06:58:39.285Z,100461.45
2019-03-09T07:01:20.195Z,100461.93
2019-03-09T07:03:49.578Z,100469.83
2019-03-09T07:06:19.362Z,100471.91
2019-03-09T07:08:49.092Z,100474.01
2019-03-09T07:11:18.404Z,100493.57
2019-03-09T07:13:52.702Z,100499.30
2019-03-09T07:16:19.115Z,100500.88
2019-03-09T07:18:49.065Z,100505.20
2019-03-09T07:21:18.345Z,100517.08
2019-03-09T07:23:47.725Z,100523.53
2019-03-09T07:26:16.975Z,100536.02
2019-03-09T07:28:46.299Z,100540.41
2019-03-09T07:31:15.621Z,100544.81
2019-03-09T07:33:44.893Z,100551.02
2019-03-09T07:36:14.483Z,100559.47
2019-03-09T07:38:43.783Z,100551.99
2019-03-09T07:41:13.387Z,100551.30
2019-03-09T07:43:48.562Z,100554.98
2019-03-09T07:46:19.991Z,100551.99
2019-03-09T07:48:50.430Z,100570.67
2019-03-09T07:51:20.421Z,100564.55
2019-03-09T07:53:50.088Z,100570.41
2019-03-09T07:56:20.083Z,100578.84
2019-03-09T07:58:49.470Z,100570.45
2019-03-09T08:01:19.219Z,100565.87
2019-03-09T08:03:49.121Z,100568.31
2019-03-09T08:06:19.699Z,100570.02
2019-03-09T08:08:49.397Z,100567.09
2019-03-09T08:11:18.718Z,100571.77
2019-03-09T08:13:48.178Z,100573.42
2019-03-09T08:16:17.482Z,100575.11
2019-03-09T08:18:47.008Z,100562.48
2019-03-09T08:21:16.550Z,100569.25
2019-03-09T08:23:45.888Z,100574.12
2019-03-09T08:26:15.301Z,100581.47
2019-03-09T08:28:44.608Z,100582.16
2019-03-09T08:31:13.894Z,100590.45
2019-03-09T08:33:43.212Z,100582.92
2019-03-09T08:36:12.494Z,100594.16
2019-03-09T08:38:41.895Z,100606.83
2019-03-09T08:41:11.180Z,100616.11
2019-03-09T08:43:40.496Z,100617.51
2019-03-09T08:46:09.817Z,100621.23
2019-03-09T08:48:39.096Z,100620.52
2019-03-09T08:51:08.462Z,100614.01
2019-03-09T08:53:37.729Z,100615.62
2019-03-09T08:56:07.041Z,100597.95
2019-03-09T08:58:36.356Z,100595.84
2019-03-09T09:01:06.333Z,100604.59
2019-03-09T09:03:35.623Z,100601.36
2019-03-09T09:06:05.136Z,100593.85
2019-03-09T09:08:34.408Z,100585.72
2019-03-09T09:11:03.910Z,100584.80
2019-03-09T09:13:33.287Z,100576.97
2019-03-09T09:16:02.601Z,100588.98
2019-03-09T09:18:32.023Z,100577.73
2019-03-09T09:21:01.564Z,100582.32
2019-03-09T09:23:30.877Z,100537.72
2019-03-09T09:26:00.306Z,100593.00
2019-03-09T09:28:29.608Z,100610.50
2019-03-09T09:30:58.939Z,100607.19
2019-03-09T09:33:28.274Z,100615.60
2019-03-09T09:35:57.612Z,100605.59
2019-03-09T09:38:26.914Z,100598.51
2019-03-09T09:40:57.113Z,100596.98
2019-03-09T09:43:26.418Z,100598.91
2019-03-09T09:45:55.731Z,100584.00
2019-03-09T09:48:25.007Z,100582.42
2019-03-09T09:50:54.307Z,100588.19
2019-03-09T09:53:23.702Z,100586.11
2019-03-09T09:55:52.958Z,100588.92
2019-03-09T09:58:22.276Z,100586.76
2019-03-09T10:00:51.573Z,100570.29
2019-03-09T10:03:20.885Z,100572.80
2019-03-09T10:05:50.263Z,100552.19
2019-03-09T10:08:19.556Z,100557.19
2019-03-09T10:10:48.864Z,100551.06
2019-03-09T10:13:18.138Z,100535.34
2019-03-09T10:15:47.460Z,100530.44
2019-03-09T10:18:16.770Z,100523.05
2019-03-09T10:20:46.043Z,100515.84
2019-03-09T10:23:15.346Z,100494.56
2019-03-09T10:25:44.688Z,100499.95
2019-03-09T10:28:13.964Z,100538.35
2019-03-09T10:30:43.340Z,100534.69
2019-03-09T10:33:12.644Z,100514.94
2019-03-09T10:35:42.019Z,100513.37
2019-03-09T10:38:11.320Z,100501.11
2019-03-09T10:40:40.600Z,100502.05
2019-03-09T10:43:09.913Z,100515.45
2019-03-09T10:45:39.206Z,100522.89
2019-03-09T10:48:08.627Z,100548.94
2019-03-09T10:50:37.954Z,100560.73
2019-03-09T10:53:07.460Z,100560.72
2019-03-09T10:55:36.887Z,100561.20
2019-03-09T10:58:06.275Z,100548.60
2019-03-09T11:00:41.066Z,100544.27
2019-03-09T11:03:10.827Z,100532.27
2019-03-09T11:05:40.167Z,100522.96
2019-03-09T11:08:09.598Z,100516.27
2019-03-09T11:10:38.880Z,100513.43
2019-03-09T11:13:08.195Z,100521.00
2019-03-09T11:15:37.964Z,100528.25
2019-03-09T11:18:07.589Z,100520.91
2019-03-09T11:20:37.074Z,100522.18
2019-03-09T11:23:06.378Z,100532.05
2019-03-09T11:25:35.685Z,100531.95
2019-03-09T11:28:08.016Z,100531.95
2019-03-09T11:30:37.401Z,100518.91
2019-03-09T11:33:06.717Z,100500.42
2019-03-09T11:35:36.397Z,100488.81
2019-03-09T11:38:05.835Z,100489.66
2019-03-09T11:40:35.149Z,100478.53
2019-03-09T11:43:04.801Z,100478.31
2019-03-09T11:45:34.099Z,100479.86
2019-03-09T11:48:03.460Z,100482.22
2019-03-09T11:50:32.907Z,100479.58
2019-03-09T11:53:02.250Z,100477.92
2019-03-09T11:55:31.549Z,100496.55
2019-03-09T11:58:01.148Z,100496.27
2019-03-09T12:00:37.875Z,100470.96
2019-03-09T12:03:07.161Z,100463.68
2019-03-09T12:05:36.613Z,100438.44
2019-03-09T12:08:05.988Z,100432.62
2019-03-09T12:10:35.302Z,100412.99
2019-03-09T12:13:04.989Z,100407.95
2019-03-09T12:15:34.421Z,100395.27
2019-03-09T12:18:03.735Z,100350.16
2019-03-09T12:20:33.261Z,100327.03
2019-03-09T12:23:20.068Z,100296.70
2019-03-09T12:25:49.436Z,100280.37
2019-03-09T12:28:19.131Z,100269.73
2019-03-09T12:30:48.511Z,100254.75
2019-03-09T12:33:18.190Z,100235.91
2019-03-09T12:35:47.492Z,100242.30
2019-03-09T12:38:16.877Z,100268.34
2019-03-09T12:40:46.292Z,100268.99
2019-03-09T12:43:15.647Z,100270.89
2019-03-09T12:45:44.953Z,100248.59
2019-03-09T12:48:14.274Z,100250.49
2019-03-09T12:50:43.578Z,100236.97
2019-03-09T12:53:14.216Z,100234.65
2019-03-09T12:55:44.009Z,100242.23
2019-03-09T12:58:13.568Z,100235.38
2019-03-09T13:00:42.881Z,100235.15
2019-03-09T13:03:12.181Z,100246.80
2019-03-09T13:05:41.562Z,100228.53
2019-03-09T13:08:10.961Z,100197.44
2019-03-09T13:10:40.330Z,100204.34
2019-03-09T13:13:10.037Z,100216.17
2019-03-09T13:15:39.419Z,100193.78
2019-03-09T13:18:08.746Z,100181.56
2019-03-09T13:20:38.053Z,100190.73
2019-03-09T13:23:07.378Z,100203.23
2019-03-09T13:25:38.650Z,100197.33
2019-03-09T13:28:07.734Z,100189.06
2019-03-09T13:30:37.006Z,100197.14
2019-03-09T13:33:06.385Z,100194.85
2019-03-09T13:35:35.665Z,100209.45
2019-03-09T13:38:05.096Z,100213.67
2019-03-09T13:40:34.556Z,100200.29
2019-03-09T13:43:04.102Z,100209.09
2019-03-09T13:45:33.398Z,100214.43
2019-03-09T13:48:02.845Z,100218.71
2019-03-09T13:50:32.125Z,100229.57
2019-03-09T13:53:01.435Z,100216.14
2019-03-09T13:55:30.768Z,100214.34
2019-03-09T13:58:00.060Z,100208.34
2019-03-09T14:00:39.730Z,100206.48
2019-03-09T14:03:00.352Z,100203.37
2019-03-09T14:05:29.655Z,100200.61
2019-03-09T14:07:58.939Z,100182.05
2019-03-09T14:10:28.509Z,100187.39
2019-03-09T14:12:58.060Z,100175.02
2019-03-09T14:15:28.062Z,100180.30
2019-03-09T14:17:57.367Z,100172.30
2019-03-09T14:20:27.363Z,100162.13
2019-03-09T14:22:56.640Z,100179.05
2019-03-09T14:25:25.953Z,100196.39
2019-03-09T14:27:55.284Z,100185.25
2019-03-09T14:30:24.592Z,100216.19
2019-03-09T14:32:53.862Z,100185.94
2019-03-09T14:35:23.178Z,100200.23
2019-03-09T14:37:52.567Z,100202.04
2019-03-09T14:40:22.025Z,100214.05
2019-03-09T14:42:51.319Z,100204.89
2019-03-09T14:45:23.806Z,100199.05
2019-03-09T14:47:53.090Z,100218.17
2019-03-09T14:50:22.497Z,100215.98
2019-03-09T14:52:51.799Z,100218.00
2019-03-09T14:55:22.152Z,100206.19
2019-03-09T14:57:51.470Z,100229.43
2019-03-09T15:00:25.419Z,100229.65
2019-03-09T15:02:54.780Z,100266.73
2019-03-09T15:05:24.165Z,100241.05
2019-03-09T15:07:53.523Z,100232.19
2019-03-09T15:10:22.845Z,100244.22
2019-03-09T15:12:52.177Z,100253.52
2019-03-09T15:15:21.963Z,100257.17
2019-03-09T15:17:51.516Z,100261.31
2019-03-09T15:20:20.916Z,100259.77
2019-03-09T15:22:50.475Z,100247.30
2019-03-09T15:25:20.558Z,100247.88
2019-03-09T15:27:50.224Z,100227.58
2019-03-09T15:30:20.454Z,100228.28
2019-03-09T15:32:49.774Z,100229.59
2019-03-09T15:35:19.140Z,100234.92
2019-03-09T15:37:48.542Z,100212.27
2019-03-09T15:40:19.165Z,100212.43
2019-03-09T15:42:48.568Z,100186.86
2019-03-09T15:45:19.037Z,100191.39
2019-03-09T15:47:48.686Z,100205.30
2019-03-09T15:50:22.700Z,100214.78
2019-03-09T15:52:52.011Z,100224.94
2019-03-09T15:55:21.380Z,100200.22
2019-03-09T15:57:50.711Z,100194.86
2019-03-09T16:00:22.281Z,100194.72
2019-03-09T16:02:52.052Z,100206.83
2019-03-09T16:05:21.331Z,100211.13
2019-03-09T16:07:50.731Z,100215.12
2019-03-09T16:10:21.778Z,100205.80
2019-03-09T16:12:51.145Z,100205.80
2019-03-09T16:15:20.579Z,100200.98
2019-03-09T16:17:49.912Z,100219.75
2019-03-09T16:20:25.113Z,100214.78
2019-03-09T16:22:54.524Z,100223.59
2019-03-09T16:25:23.924Z,100240.86
2019-03-09T16:27:53.657Z,100234.80
2019-03-09T16:30:24.025Z,100244.67
2019-03-09T16:32:53.326Z,100253.48
2019-03-09T16:35:22.617Z,100280.04
2019-03-09T16:37:52.574Z,100307.32
2019-03-09T16:40:23.224Z,100317.30
2019-03-09T16:42:52.582Z,100335.06
2019-03-09T16:45:21.964Z,100325.33
2019-03-09T16:47:51.650Z,100363.72
2019-03-09T16:50:20.939Z,100361.27
2019-03-09T16:52:50.370Z,100386.61
2019-03-09T16:55:19.776Z,100403.10
2019-03-09T16:57:49.113Z,100406.76
2019-03-09T17:00:20.711Z,100409.00
2019-03-09T17:02:50.007Z,100415.83
2019-03-09T17:05:19.377Z,100438.34
2019-03-09T17:07:48.730Z,100447.80
2019-03-09T17:10:19.289Z,100447.09
2019-03-09T17:12:49.002Z,100449.34
2019-03-09T17:15:22.841Z,100463.97
2019-03-09T17:17:52.231Z,100469.94
2019-03-09T17:20:21.681Z,100484.77
2019-03-09T17:22:51.056Z,100503.26
2019-03-09T17:25:20.382Z,100504.58
2019-03-09T17:27:49.697Z,100509.03
2019-03-09T17:30:21.415Z,100506.25
2019-03-09T17:32:52.410Z,100522.70
2019-03-09T17:35:21.747Z,100536.86
2019-03-09T17:37:51.787Z,100546.61
2019-03-09T17:40:21.179Z,100556.95
2019-03-09T17:42:50.444Z,100566.99
2019-03-09T17:45:22.637Z,100567.97
2019-03-09T17:47:52.105Z,100566.77
2019-03-09T17:50:21.470Z,100572.29
2019-03-09T17:52:50.850Z,100579.81
2019-03-09T17:55:20.158Z,100585.25
2019-03-09T17:57:49.537Z,100598.71
2019-03-09T18:00:42.036Z,100617.27
2019-03-09T18:03:05.257Z,100607.94
2019-03-09T18:05:35.111Z,100608.67
2019-03-09T18:08:04.420Z,100615.86
2019-03-09T18:10:42.624Z,100636.38
2019-03-09T18:13:11.908Z,100632.83
2019-03-09T18:15:41.235Z,100638.04
2019-03-09T18:18:10.536Z,100658.34
2019-03-09T18:20:39.846Z,100661.19
2019-03-09T18:23:09.384Z,100657.36
2019-03-09T18:25:38.852Z,100667.33
2019-03-09T18:28:08.173Z,100661.48
2019-03-09T18:30:37.464Z,100662.44
2019-03-09T18:33:06.771Z,100673.11
2019-03-09T18:35:36.153Z,100678.59
2019-03-09T18:38:05.528Z,100684.60
2019-03-09T18:40:34.814Z,100685.30
2019-03-09T18:43:04.279Z,100692.69
2019-03-09T18:45:33.580Z,100702.16
2019-03-09T18:48:02.963Z,100703.76
2019-03-09T18:50:32.249Z,100707.67
2019-03-09T18:53:01.553Z,100707.52
2019-03-09T18:55:31.168Z,100711.02
2019-03-09T18:58:00.443Z,100721.52
2019-03-09T19:00:29.828Z,100723.62
2019-03-09T19:02:59.141Z,100727.48
2019-03-09T19:05:29.531Z,100727.06
2019-03-09T19:07:59.010Z,100727.97
2019-03-09T19:10:28.415Z,100735.58
2019-03-09T19:12:57.748Z,100735.28
2019-03-09T19:15:27.025Z,100744.56
2019-03-09T19:17:56.353Z,100749.70
2019-03-09T19:20:25.818Z,100754.05
2019-03-09T19:22:55.150Z,100755.58
2019-03-09T19:25:24.583Z,100769.27
2019-03-09T19:27:54.054Z,100775.73
2019-03-09T19:30:23.711Z,100770.78
2019-03-09T19:33:00.203Z,100780.94
2019-03-09T19:35:26.550Z,100782.09
2019-03-09T19:37:55.853Z,100786.23
2019-03-09T19:40:25.283Z,100782.09
2019-03-09T19:42:54.574Z,100779.89
2019-03-09T19:45:23.909Z,100775.81
2019-03-09T19:47:53.869Z,100785.41
2019-03-09T19:50:27.778Z,100790.66
2019-03-09T19:52:58.910Z,100796.13
2019-03-09T19:55:28.432Z,100799.48
2019-03-09T19:57:57.721Z,100802.92
2019-03-09T20:00:27.107Z,100812.86
2019-03-09T20:02:56.426Z,100815.41
2019-03-09T20:05:25.756Z,100809.98
2019-03-09T20:07:55.098Z,100813.58
2019-03-09T20:10:24.798Z,100818.81
2019-03-09T20:12:54.087Z,100817.84
2019-03-09T20:15:23.399Z,100817.84
2019-03-09T20:17:52.696Z,100817.37
2019-03-09T20:20:22.114Z,100828.42
2019-03-09T20:22:51.586Z,100833.04
2019-03-09T20:25:20.994Z,100836.83
2019-03-09T20:27:50.293Z,100843.23
2019-03-09T20:30:21.530Z,100841.63
2019-03-09T20:32:50.831Z,100844.80
2019-03-09T20:35:20.197Z,100844.89
2019-03-09T20:37:49.682Z,100848.02
2019-03-09T20:40:19.051Z,100855.22
2019-03-09T20:42:48.350Z,100844.89
2019-03-09T20:45:19.868Z,100856.24
2019-03-09T20:47:49.182Z,100856.24
2019-03-09T20:50:20.957Z,100858.51
2019-03-09T20:52:50.292Z,100857.16
2019-03-09T20:55:20.825Z,100863.33
2019-03-09T20:57:50.577Z,100869.73
2019-03-09T21:00:23.799Z,100858.11
2019-03-09T21:02:54.176Z,100843.75
2019-03-09T21:05:24.495Z,100857.92
2019-03-09T21:07:55.148Z,100865.81
2019-03-09T21:10:24.454Z,100868.87
2019-03-09T21:13:05.043Z,100877.95
2019-03-09T21:15:34.513Z,100874.81
2019-03-09T21:18:03.984Z,100865.20
2019-03-09T21:20:33.267Z,100868.51
2019-03-09T21:23:02.677Z,100870.27
2019-03-09T21:25:31.963Z,100873.02
2019-03-09T21:28:01.460Z,100881.47
2019-03-09T21:30:30.814Z,100878.81
2019-03-09T21:33:00.226Z,100890.25
2019-03-09T21:35:29.525Z,100881.91
2019-03-09T21:37:58.858Z,100881.91
2019-03-09T21:40:28.238Z,100888.75
2019-03-09T21:42:57.630Z,100879.31
2019-03-09T21:45:27.004Z,100877.16
2019-03-09T21:47:56.321Z,100877.16
2019-03-09T21:50:25.927Z,100889.33
2019-03-09T21:52:55.254Z,100881.91
2019-03-09T21:55:24.563Z,100881.91
2019-03-09T21:57:53.932Z,100883.67
2019-03-09T22:00:23.499Z,100883.45
2019-03-09T22:02:52.778Z,100883.79
2019-03-09T22:05:22.160Z,100879.73
2019-03-09T22:07:51.509Z,100882.49
2019-03-09T22:10:20.840Z,100884.66
2019-03-09T22:12:50.576Z,100877.08
2019-03-09T22:15:19.959Z,100882.45
2019-03-09T22:17:49.283Z,100882.45
2019-03-09T22:20:20.484Z,100874.75
2019-03-09T22:22:49.681Z,100880.02
2019-03-09T22:25:19.272Z,100885.92
2019-03-09T22:27:48.786Z,100888.96
2019-03-09T22:30:20.672Z,100881.41
2019-03-09T22:32:50.067Z,100877.95
2019-03-09T22:35:19.525Z,100886.09
2019-03-09T22:37:50.384Z,100889.94
2019-03-09T22:40:20.307Z,100889.94
2019-03-09T22:42:49.611Z,100881.74
2019-03-09T22:45:18.929Z,100892.70
2019-03-09T22:47:48.284Z,100883.80
2019-03-09T22:50:19.780Z,100887.28
2019-03-09T22:52:49.096Z,100889.09
2019-03-09T22:55:18.647Z,100885.11
2019-03-09T22:57:48.045Z,100876.38
2019-03-09T23:00:24.269Z,100876.38
2019-03-09T23:02:53.727Z,100885.51
2019-03-09T23:05:23.149Z,100872.39
2019-03-09T23:07:52.605Z,100869.41
2019-03-09T23:10:26.092Z,100869.28
2019-03-09T23:12:55.486Z,100870.13
2019-03-09T23:15:25.018Z,100871.70
2019-03-09T23:17:54.622Z,100874.45
2019-03-09T23:20:23.944Z,100863.89
2019-03-09T23:22:53.441Z,100860.39
2019-03-09T23:25:22.959Z,100871.17
2019-03-09T23:27:52.265Z,100870.09
2019-03-09T23:30:23.109Z,100865.86
2019-03-09T23:32:52.607Z,100853.68
2019-03-09T23:35:22.540Z,100843.84
2019-03-09T23:37:51.917Z,100843.84
2019-03-09T23:40:23.108Z,100820.16
2019-03-09T23:42:52.921Z,100820.16
2019-03-09T23:45:23.852Z,100828.09
2019-03-09T23:47:55.577Z,100821.72
2019-03-09T23:50:26.407Z,100821.72
2019-03-09T23:52:56.871Z,100815.25
2019-03-09T23:55:27.010Z,100807.88
2019-03-09T23:57:57.069Z,100814.73
